Time;durP1;ratioP1;P1;durP2;ratioP2;P2;SDS_P1;SDS_P2;PMS_P1;PMS_P2;Temp;Humidity;BMP_temperature;BMP_pressure;BME280_temperature;BME280_humidity;BME280_pressure;Samples;Min_cycle;Max_cycle;Signal;HPM_P1;HPM_P2
2021/05/29 00:00:35;;;;;;;6.77;4.20;;;;;;;;;;5044674;28;20297;-72
2021/05/29 00:03:01;;;;;;;5.25;4.00;;;;;;;;;;5053536;28;20354;-71
2021/05/29 00:05:26;;;;;;;4.32;3.70;;;;;;;;;;5061821;28;20445;-71
2021/05/29 00:07:51;;;;;;;7.07;4.22;;;;;;;;;;5072504;28;20012;-71
2021/05/29 00:10:17;;;;;;;5.97;4.10;;;;;;;;;;5071837;28;20019;-71
2021/05/29 00:12:42;;;;;;;9.13;4.57;;;;;;;;;;5053482;28;20028;-73
2021/05/29 00:15:12;;;;;;;5.70;4.20;;;;;;;;;;5053257;28;20028;-72
2021/05/29 00:17:37;;;;;;;5.90;4.03;;;;;;;;;;5053497;28;20013;-72
2021/05/29 00:20:06;;;;;;;6.05;4.20;;;;;;;;;;5059215;28;20150;-71
2021/05/29 00:22:34;;;;;;;7.40;4.10;;;;;;;;;;5073254;28;20107;-72
2021/05/29 00:24:59;;;;;;;8.43;4.15;;;;;;;;;;5071547;28;20074;-72
2021/05/29 00:27:24;;;;;;;7.82;4.50;;;;;;;;;;5073416;28;20021;-72
2021/05/29 00:29:49;;;;;;;4.45;3.75;;;;;;;;;;5070126;28;20087;-72
2021/05/29 00:32:14;;;;;;;7.30;4.05;;;;;;;;;;5056370;28;20498;-72
2021/05/29 00:34:40;;;;;;;6.40;4.60;;;;;;;;;;5057041;28;20496;-71
2021/05/29 00:37:06;;;;;;;4.47;4.07;;;;;;;;;;5057239;28;20039;-72
2021/05/29 00:39:31;;;;;;;6.72;4.38;;;;;;;;;;5056401;28;20025;-73
2021/05/29 00:41:56;;;;;;;6.82;4.00;;;;;;;;;;5057112;28;20083;-72
2021/05/29 00:44:23;;;;;;;7.65;4.07;;;;;;;;;;5064660;28;20066;-72
2021/05/29 00:46:51;;;;;;;6.55;4.47;;;;;;;;;;5076928;28;20024;-72
2021/05/29 00:49:16;;;;;;;8.25;4.22;;;;;;;;;;5068674;28;20081;-71
2021/05/29 00:51:42;;;;;;;6.13;3.85;;;;;;;;;;5076771;28;20033;-71
2021/05/29 00:54:09;;;;;;;6.32;4.10;;;;;;;;;;5069470;28;20013;-71
2021/05/29 00:56:35;;;;;;;4.63;4.22;;;;;;;;;;5076253;28;20024;-72
2021/05/29 00:59:01;;;;;;;7.25;4.10;;;;;;;;;;5057090;28;20036;-71
2021/05/29 01:01:26;;;;;;;5.70;4.25;;;;;;;;;;5055718;28;20350;-71
2021/05/29 01:03:51;;;;;;;6.13;4.70;;;;;;;;;;5056656;28;20021;-72
2021/05/29 01:06:16;;;;;;;7.55;4.03;;;;;;;;;;5056567;28;20262;-71
2021/05/29 01:08:58;;;;;;;4.95;4.20;;;;;;;;;;5036443;28;20044;-72
2021/05/29 01:11:23;;;;;;;5.93;4.18;;;;;;;;;;5036403;28;20013;-72
2021/05/29 01:13:49;;;;;;;6.05;4.18;;;;;;;;;;5073126;28;20488;-72
2021/05/29 01:16:42;;;;;;;6.95;4.38;;;;;;;;;;5076453;28;20363;-71
2021/05/29 01:18:59;;;;;;;4.85;4.20;;;;;;;;;;5076430;28;20081;-71
2021/05/29 01:21:24;;;;;;;5.00;4.10;;;;;;;;;;5075188;28;20025;-71
2021/05/29 01:23:55;;;;;;;4.97;4.15;;;;;;;;;;5075724;28;20036;-72
2021/05/29 01:26:20;;;;;;;7.03;4.25;;;;;;;;;;5074692;28;20059;-72
2021/05/29 01:28:53;;;;;;;6.70;4.53;;;;;;;;;;5076043;28;20398;-71
2021/05/29 01:31:18;;;;;;;7.70;4.57;;;;;;;;;;5074592;28;20012;-72
2021/05/29 01:33:44;;;;;;;5.93;4.85;;;;;;;;;;5076007;28;20062;-73
2021/05/29 01:36:10;;;;;;;6.85;4.28;;;;;;;;;;5074561;28;20021;-72
2021/05/29 01:38:36;;;;;;;7.25;4.72;;;;;;;;;;5073000;28;20030;-73
2021/05/29 01:41:04;;;;;;;8.48;4.45;;;;;;;;;;5055248;28;20025;-72
2021/05/29 01:43:30;;;;;;;4.85;4.35;;;;;;;;;;5055762;28;20053;-73
2021/05/29 01:45:55;;;;;;;7.97;4.88;;;;;;;;;;5056069;28;20064;-71
2021/05/29 01:48:21;;;;;;;5.47;4.40;;;;;;;;;;5055086;28;20124;-72
2021/05/29 01:50:46;;;;;;;5.00;3.97;;;;;;;;;;5055827;28;20017;-72
2021/05/29 01:53:18;;;;;;;6.15;4.72;;;;;;;;;;5054534;28;20516;-71
2021/05/29 01:55:44;;;;;;;5.93;4.40;;;;;;;;;;5059339;28;20017;-71
2021/05/29 01:58:10;;;;;;;4.43;3.72;;;;;;;;;;5075503;28;20047;-72
2021/05/29 02:00:35;;;;;;;6.43;4.70;;;;;;;;;;5074092;28;20008;-73
2021/05/29 02:03:00;;;;;;;6.47;5.03;;;;;;;;;;5075644;28;20020;-72
2021/05/29 02:05:27;;;;;;;5.82;4.78;;;;;;;;;;5075428;28;20157;-72
2021/05/29 02:07:53;;;;;;;6.03;4.57;;;;;;;;;;5075532;28;20017;-71
2021/05/29 02:10:23;;;;;;;4.75;3.67;;;;;;;;;;5061798;28;20471;-72
2021/05/29 02:12:49;;;;;;;6.55;4.75;;;;;;;;;;5050731;28;20025;-72
2021/05/29 02:15:16;;;;;;;7.10;4.72;;;;;;;;;;5052284;28;20025;-72
2021/05/29 02:17:42;;;;;;;4.82;3.95;;;;;;;;;;5050198;28;20017;-71
2021/05/29 02:20:11;;;;;;;5.25;4.15;;;;;;;;;;5035230;28;20017;-72
2021/05/29 02:22:36;;;;;;;6.82;4.40;;;;;;;;;;5037597;28;20450;-71
2021/05/29 02:25:05;;;;;;;5.63;3.90;;;;;;;;;;5055357;28;20040;-71
2021/05/29 02:27:30;;;;;;;5.63;4.13;;;;;;;;;;5086862;28;20028;-72
2021/05/29 02:29:58;;;;;;;4.00;3.70;;;;;;;;;;5054887;28;20029;-72
2021/05/29 02:32:25;;;;;;;4.93;3.80;;;;;;;;;;5054917;28;20016;-72
2021/05/29 02:34:53;;;;;;;5.60;4.05;;;;;;;;;;5070383;28;20338;-71
2021/05/29 02:37:18;;;;;;;6.70;3.78;;;;;;;;;;5074964;28;20559;-71
2021/05/29 02:39:43;;;;;;;5.05;4.13;;;;;;;;;;5061671;28;20040;-72
2021/05/29 02:42:09;;;;;;;4.32;3.90;;;;;;;;;;5053673;28;20024;-71
2021/05/29 02:44:34;;;;;;;4.68;4.28;;;;;;;;;;5054482;28;20441;-72
2021/05/29 02:47:01;;;;;;;5.97;4.43;;;;;;;;;;5054233;28;20438;-72
2021/05/29 02:49:27;;;;;;;6.88;3.88;;;;;;;;;;5054440;28;20044;-72
2021/05/29 02:51:52;;;;;;;5.20;4.30;;;;;;;;;;5053169;28;20075;-72
2021/05/29 02:54:21;;;;;;;5.70;4.72;;;;;;;;;;5053703;28;20056;-72
2021/05/29 02:56:46;;;;;;;6.55;4.40;;;;;;;;;;5053286;28;20013;-72
2021/05/29 02:59:11;;;;;;;6.75;4.30;;;;;;;;;;5053749;28;20024;-72
2021/05/29 03:01:37;;;;;;;5.70;4.05;;;;;;;;;;5053857;28;20046;-71
2021/05/29 03:04:02;;;;;;;5.40;4.40;;;;;;;;;;5053910;28;20028;-73
2021/05/29 03:06:27;;;;;;;6.90;4.30;;;;;;;;;;5055937;28;20028;-72
2021/05/29 03:08:53;;;;;;;4.20;3.80;;;;;;;;;;5054911;28;20064;-72
2021/05/29 03:11:20;;;;;;;5.15;4.40;;;;;;;;;;5053323;28;20023;-72
2021/05/29 03:13:47;;;;;;;6.68;4.85;;;;;;;;;;5053639;28;20040;-71
2021/05/29 03:16:12;;;;;;;5.13;4.03;;;;;;;;;;5053606;28;20024;-71
2021/05/29 03:18:38;;;;;;;8.10;5.00;;;;;;;;;;5066993;28;20021;-71
2021/05/29 03:21:03;;;;;;;8.40;4.30;;;;;;;;;;5052309;28;20456;-71
2021/05/29 03:23:28;;;;;;;6.18;4.40;;;;;;;;;;5051057;28;20190;-72
2021/05/29 03:25:53;;;;;;;5.32;4.80;;;;;;;;;;5050223;28;20485;-72
2021/05/29 03:28:19;;;;;;;4.72;4.30;;;;;;;;;;5050958;28;20494;-72
2021/05/29 03:30:47;;;;;;;9.10;4.85;;;;;;;;;;5051904;28;20021;-71
2021/05/29 03:33:13;;;;;;;8.30;5.00;;;;;;;;;;5052834;28;20039;-72
2021/05/29 03:35:41;;;;;;;4.80;4.13;;;;;;;;;;5052600;28;20017;-73
2021/05/29 03:38:07;;;;;;;5.95;4.68;;;;;;;;;;5049928;28;20009;-71
2021/05/29 03:40:32;;;;;;;7.10;4.95;;;;;;;;;;5066853;28;20013;-72
2021/05/29 03:43:00;;;;;;;5.93;4.18;;;;;;;;;;5050837;28;20022;-71
2021/05/29 03:45:25;;;;;;;6.05;5.18;;;;;;;;;;5066857;28;20021;-72
2021/05/29 03:47:51;;;;;;;5.20;4.45;;;;;;;;;;5051823;28;20040;-72
2021/05/29 03:50:23;;;;;;;5.68;5.13;;;;;;;;;;5051258;28;20021;-71
2021/05/29 03:52:51;;;;;;;8.35;4.60;;;;;;;;;;5066484;28;20435;-72
2021/05/29 03:55:17;;;;;;;6.10;5.38;;;;;;;;;;5049727;28;20075;-72
2021/05/29 03:57:44;;;;;;;7.45;5.35;;;;;;;;;;5052163;28;20013;-72
2021/05/29 04:00:13;;;;;;;12.55;5.35;;;;;;;;;;5051817;28;20047;-72
2021/05/29 04:02:38;;;;;;;6.10;5.32;;;;;;;;;;5047887;28;20519;-71
2021/05/29 04:05:04;;;;;;;5.57;4.38;;;;;;;;;;5051956;28;20020;-72
2021/05/29 04:07:29;;;;;;;5.95;4.68;;;;;;;;;;5065580;28;20128;-72
2021/05/29 04:09:54;;;;;;;5.57;5.00;;;;;;;;;;5049471;28;20116;-71
2021/05/29 04:12:20;;;;;;;5.20;4.70;;;;;;;;;;5051490;28;20328;-73
2021/05/29 04:14:45;;;;;;;5.43;4.78;;;;;;;;;;5048542;28;20028;-72
2021/05/29 04:17:12;;;;;;;7.93;5.18;;;;;;;;;;5033616;28;20366;-72
2021/05/29 04:19:39;;;;;;;7.78;4.80;;;;;;;;;;5033597;28;20052;-72
2021/05/29 04:22:05;;;;;;;7.22;4.90;;;;;;;;;;5041136;28;20029;-72
2021/05/29 04:24:30;;;;;;;8.38;5.15;;;;;;;;;;5053033;28;20092;-73
2021/05/29 04:26:58;;;;;;;5.68;4.82;;;;;;;;;;5052483;28;20035;-72
2021/05/29 04:29:23;;;;;;;8.13;5.25;;;;;;;;;;5053314;28;20025;-72
2021/05/29 04:31:51;;;;;;;6.80;5.38;;;;;;;;;;5068976;28;20445;-72
2021/05/29 04:34:16;;;;;;;6.90;5.20;;;;;;;;;;5053668;28;20020;-72
2021/05/29 04:36:42;;;;;;;7.10;5.28;;;;;;;;;;5051698;28;20058;-73
2021/05/29 04:39:07;;;;;;;5.65;5.05;;;;;;;;;;5053151;28;20021;-73
2021/05/29 04:41:32;;;;;;;5.93;4.95;;;;;;;;;;5061625;28;20036;-73
2021/05/29 04:43:59;;;;;;;6.85;5.43;;;;;;;;;;5073132;28;20016;-73
2021/05/29 04:46:26;;;;;;;6.43;5.05;;;;;;;;;;5052680;28;20409;-73
2021/05/29 04:48:51;;;;;;;5.10;4.43;;;;;;;;;;5050993;28;20017;-73
2021/05/29 04:51:17;;;;;;;8.25;5.18;;;;;;;;;;5049569;28;20029;-72
2021/05/29 04:53:46;;;;;;;5.63;4.47;;;;;;;;;;5046385;28;20014;-73
2021/05/29 04:56:12;;;;;;;6.53;4.60;;;;;;;;;;5053005;28;20466;-73
2021/05/29 04:58:42;;;;;;;5.57;4.95;;;;;;;;;;5067200;28;20045;-73
2021/05/29 05:01:08;;;;;;;5.35;4.70;;;;;;;;;;5052573;28;20025;-73
2021/05/29 05:03:34;;;;;;;6.18;4.25;;;;;;;;;;5068116;28;20442;-72
2021/05/29 05:05:59;;;;;;;5.20;4.70;;;;;;;;;;5052466;28;20028;-72
2021/05/29 05:08:24;;;;;;;7.05;5.00;;;;;;;;;;5052800;28;20041;-72
2021/05/29 05:10:51;;;;;;;6.18;4.18;;;;;;;;;;5052354;28;20043;-72
2021/05/29 05:13:16;;;;;;;6.82;4.95;;;;;;;;;;5052815;28;20029;-72
2021/05/29 05:15:44;;;;;;;8.30;4.88;;;;;;;;;;5052241;28;20083;-72
2021/05/29 05:18:09;;;;;;;4.75;4.20;;;;;;;;;;5056436;28;20398;-72
2021/05/29 05:20:36;;;;;;;6.10;4.30;;;;;;;;;;5057047;28;20056;-71
2021/05/29 05:23:01;;;;;;;5.15;4.50;;;;;;;;;;5056312;28;20025;-71
2021/05/29 05:25:28;;;;;;;6.82;4.55;;;;;;;;;;5055510;28;20104;-72
2021/05/29 05:27:53;;;;;;;6.60;5.00;;;;;;;;;;5073934;28;20416;-72
2021/05/29 05:30:18;;;;;;;4.45;4.05;;;;;;;;;;5066743;28;20125;-74
2021/05/29 05:32:44;;;;;;;9.05;4.43;;;;;;;;;;5054665;28;20025;-72
2021/05/29 05:35:13;;;;;;;8.05;4.50;;;;;;;;;;5050639;28;20036;-72
2021/05/29 05:37:39;;;;;;;5.45;4.70;;;;;;;;;;5048730;28;20013;-72
2021/05/29 05:40:04;;;;;;;6.40;4.95;;;;;;;;;;5035891;28;20031;-72
2021/05/29 05:42:32;;;;;;;7.07;4.78;;;;;;;;;;5035663;28;20063;-73
2021/05/29 05:44:57;;;;;;;6.00;4.53;;;;;;;;;;5035800;28;20079;-71
2021/05/29 05:47:23;;;;;;;6.60;5.20;;;;;;;;;;5071006;28;20446;-70
2021/05/29 05:49:48;;;;;;;8.32;5.10;;;;;;;;;;5055953;28;20024;-72
2021/05/29 05:52:13;;;;;;;8.75;5.47;;;;;;;;;;5050554;28;20079;-71
2021/05/29 05:54:38;;;;;;;7.68;4.72;;;;;;;;;;5040632;28;20020;-73
2021/05/29 05:57:03;;;;;;;5.53;4.90;;;;;;;;;;5055549;28;20452;-70
2021/05/29 05:59:31;;;;;;;7.53;5.13;;;;;;;;;;5055223;28;20103;-70
2021/05/29 06:01:56;;;;;;;6.70;5.25;;;;;;;;;;5052484;28;20457;-70
2021/05/29 06:04:21;;;;;;;5.68;4.72;;;;;;;;;;5054812;28;20112;-71
2021/05/29 06:06:47;;;;;;;5.68;4.70;;;;;;;;;;5054100;28;20032;-71
2021/05/29 06:09:13;;;;;;;6.63;4.38;;;;;;;;;;5054416;28;20370;-71
2021/05/29 06:11:38;;;;;;;6.70;4.07;;;;;;;;;;5055080;28;20013;-71
2021/05/29 06:19:20;;;;;;;5.78;4.28;;;;;;;;;;5053946;28;20038;-70
2021/05/29 06:21:50;;;;;;;4.97;3.85;;;;;;;;;;5052122;28;20621;-69
2021/05/29 06:24:20;;;;;;;6.53;4.25;;;;;;;;;;5056027;28;20039;-71
2021/05/29 06:26:45;;;;;;;6.20;4.38;;;;;;;;;;5054398;28;20104;-71
2021/05/29 06:29:10;;;;;;;4.88;4.38;;;;;;;;;;5055209;28;20103;-73
2021/05/29 06:31:36;;;;;;;8.00;4.57;;;;;;;;;;5054871;28;20357;-73
2021/05/29 06:34:01;;;;;;;8.85;4.97;;;;;;;;;;5056161;28;20028;-73
2021/05/29 06:36:26;;;;;;;5.28;4.38;;;;;;;;;;5054796;28;20032;-73
2021/05/29 06:38:52;;;;;;;5.43;4.30;;;;;;;;;;5053844;28;20058;-68
2021/05/29 06:41:19;;;;;;;8.65;4.40;;;;;;;;;;5053449;28;20020;-71
2021/05/29 06:43:46;;;;;;;7.15;4.38;;;;;;;;;;5054599;28;20037;-70
2021/05/29 06:46:14;;;;;;;5.70;3.90;;;;;;;;;;5054818;28;20017;-71
2021/05/29 06:48:42;;;;;;;4.88;3.92;;;;;;;;;;5054399;28;20025;-71
2021/05/29 06:51:09;;;;;;;5.72;4.00;;;;;;;;;;5068200;28;20441;-71
2021/05/29 06:53:49;;;;;;;7.47;4.25;;;;;;;;;;5074203;28;20020;-71
2021/05/29 06:59:09;;;;;;;9.15;4.20;;;;;;;;;;5006561;28;20077;-73
2021/05/29 07:01:34;;;;;;;6.32;4.40;;;;;;;;;;5041116;28;20032;-70
2021/05/29 07:03:59;;;;;;;9.67;4.17;;;;;;;;;;5053983;28;20027;-71
2021/05/29 07:06:27;;;;;;;6.40;4.13;;;;;;;;;;5053645;28;20619;-71
2021/05/29 07:08:56;;;;;;;6.40;3.88;;;;;;;;;;5053974;28;20639;-70
2021/05/29 07:11:21;;;;;;;5.78;4.68;;;;;;;;;;5050406;28;20434;-71
2021/05/29 07:13:49;;;;;;;9.18;5.05;;;;;;;;;;5085741;28;20148;-71
2021/05/29 07:16:15;;;;;;;7.78;4.30;;;;;;;;;;5053966;28;20025;-70
2021/05/29 07:18:44;;;;;;;4.75;4.13;;;;;;;;;;5053883;28;20150;-70
2021/05/29 07:21:12;;;;;;;5.13;4.10;;;;;;;;;;5052257;28;20349;-70
2021/05/29 07:23:40;;;;;;;5.00;3.95;;;;;;;;;;5053122;28;20028;-69
2021/05/29 07:26:05;;;;;;;10.07;4.05;;;;;;;;;;5050488;28;20112;-69
2021/05/29 07:28:33;;;;;;;5.15;4.32;;;;;;;;;;5053298;28;20092;-70
2021/05/29 07:31:01;;;;;;;4.85;3.53;;;;;;;;;;5053403;28;20075;-70
2021/05/29 07:33:27;;;;;;;4.20;3.53;;;;;;;;;;5052290;28;20017;-70
2021/05/29 07:35:52;;;;;;;4.88;3.30;;;;;;;;;;5052376;28;20013;-70
2021/05/29 07:38:22;;;;;;;10.00;3.22;;;;;;;;;;5054052;28;20050;-70
2021/05/29 07:40:47;;;;;;;3.78;3.20;;;;;;;;;;5052118;28;20028;-70
2021/05/29 07:43:13;;;;;;;3.25;2.95;;;;;;;;;;5051815;28;20017;-69
2021/05/29 07:45:38;;;;;;;4.07;2.42;;;;;;;;;;5052753;28;20009;-70
2021/05/29 07:48:03;;;;;;;3.17;2.47;;;;;;;;;;5050447;28;20027;-71
2021/05/29 07:50:29;;;;;;;3.05;2.10;;;;;;;;;;5051617;28;20044;-69
2021/05/29 07:52:56;;;;;;;3.25;2.30;;;;;;;;;;5052806;28;20052;-70
2021/05/29 07:55:22;;;;;;;2.72;2.15;;;;;;;;;;5050779;28;20021;-70
2021/05/29 07:57:49;;;;;;;6.03;2.03;;;;;;;;;;5052455;28;20017;-70
2021/05/29 08:00:23;;;;;;;2.17;1.90;;;;;;;;;;5049387;28;20029;-70
2021/05/29 08:02:48;;;;;;;2.80;1.88;;;;;;;;;;5048078;28;20035;-70
2021/05/29 08:05:17;;;;;;;2.42;1.77;;;;;;;;;;5052669;28;20112;-70
2021/05/29 08:07:42;;;;;;;2.85;1.85;;;;;;;;;;5053256;28;20017;-69
2021/05/29 08:10:08;;;;;;;3.03;1.90;;;;;;;;;;5052633;28;20108;-69
2021/05/29 08:12:33;;;;;;;2.25;1.80;;;;;;;;;;5060626;28;20021;-69
2021/05/29 08:14:59;;;;;;;8.18;1.70;;;;;;;;;;5069344;28;20430;-69
2021/05/29 08:17:24;;;;;;;1.83;1.55;;;;;;;;;;5053222;28;20071;-70
2021/05/29 08:19:51;;;;;;;3.58;1.50;;;;;;;;;;5073268;28;20035;-69
2021/05/29 08:22:17;;;;;;;2.97;1.80;;;;;;;;;;5073675;28;20021;-70
2021/05/29 08:24:42;;;;;;;4.93;1.65;;;;;;;;;;5073678;28;20028;-69
2021/05/29 08:27:07;;;;;;;2.15;1.60;;;;;;;;;;5045355;28;20032;-70
2021/05/29 08:29:33;;;;;;;2.70;1.80;;;;;;;;;;5052869;28;20028;-70
2021/05/29 08:31:58;;;;;;;1.95;1.73;;;;;;;;;;5053089;28;20437;-72
2021/05/29 08:34:23;;;;;;;2.38;1.98;;;;;;;;;;5052607;28;20098;-71
2021/05/29 08:36:49;;;;;;;4.87;2.20;;;;;;;;;;5053345;28;20100;-68
2021/05/29 08:39:16;;;;;;;3.55;2.00;;;;;;;;;;5069001;28;20309;-67
2021/05/29 08:41:42;;;;;;;5.75;2.60;;;;;;;;;;5068805;28;20045;-67
2021/05/29 08:44:11;;;;;;;4.07;2.20;;;;;;;;;;5053304;28;20063;-68
2021/05/29 08:46:36;;;;;;;2.08;1.80;;;;;;;;;;5051975;28;20104;-68
2021/05/29 08:49:02;;;;;;;3.67;1.73;;;;;;;;;;5068541;28;20108;-68
2021/05/29 08:51:30;;;;;;;2.85;2.08;;;;;;;;;;5054071;28;20028;-68
2021/05/29 08:53:57;;;;;;;2.53;1.80;;;;;;;;;;5058235;28;20724;-68
2021/05/29 08:56:24;;;;;;;4.38;2.30;;;;;;;;;;5055828;28;20024;-67
2021/05/29 08:58:49;;;;;;;6.28;2.58;;;;;;;;;;5055364;28;20400;-68
2021/05/29 09:01:18;;;;;;;3.65;2.50;;;;;;;;;;5072217;28;20021;-68
2021/05/29 09:03:43;;;;;;;2.80;2.30;;;;;;;;;;5056635;28;20017;-69
2021/05/29 09:06:09;;;;;;;5.40;2.42;;;;;;;;;;5056751;28;20087;-68
2021/05/29 09:08:37;;;;;;;4.78;2.22;;;;;;;;;;5063039;28;20577;-67
2021/05/29 09:11:03;;;;;;;2.50;2.00;;;;;;;;;;5073298;28;20017;-67
2021/05/29 09:13:30;;;;;;;3.08;2.10;;;;;;;;;;5058639;28;20025;-69
2021/05/29 09:15:57;;;;;;;4.13;2.10;;;;;;;;;;5065086;28;20021;-68
2021/05/29 09:18:26;;;;;;;4.82;2.10;;;;;;;;;;5069845;28;20027;-67
2021/05/29 09:20:51;;;;;;;2.45;2.08;;;;;;;;;;5064442;28;20399;-71
2021/05/29 09:23:17;;;;;;;3.25;2.63;;;;;;;;;;5076682;28;20091;-67
2021/05/29 09:25:53;;;;;;;3.13;1.60;;;;;;;;;;5074929;28;20036;-75
2021/05/29 09:28:24;;;;;;;4.25;1.85;;;;;;;;;;5050802;28;20621;-65
2021/05/29 09:30:51;;;;;;;2.67;1.90;;;;;;;;;;5054483;28;20369;-69
2021/05/29 09:33:23;;;;;;;3.95;1.98;;;;;;;;;;5048024;28;20100;-68
2021/05/29 09:36:17;;;;;;;3.42;2.22;;;;;;;;;;5075908;28;20103;-69
2021/05/29 09:38:44;;;;;;;5.35;1.90;;;;;;;;;;5061212;28;20032;-68
2021/05/29 09:41:18;;;;;;;5.05;2.50;;;;;;;;;;5066299;28;20032;-66
2021/05/29 09:43:54;;;;;;;3.33;2.33;;;;;;;;;;5074992;28;20017;-72
2021/05/29 09:46:19;;;;;;;3.97;2.50;;;;;;;;;;5069642;28;20020;-70
2021/05/29 09:48:52;;;;;;;3.20;2.22;;;;;;;;;;5055558;28;20446;-74
2021/05/29 09:51:20;;;;;;;4.47;1.90;;;;;;;;;;5066291;28;20017;-70
2021/05/29 09:53:47;;;;;;;3.28;2.17;;;;;;;;;;5051086;28;20024;-73
2021/05/29 09:56:30;;;;;;;2.17;1.67;;;;;;;;;;5053689;28;20020;-67
2021/05/29 09:59:08;;;;;;;3.95;1.90;;;;;;;;;;5049389;28;20520;-69
2021/05/29 10:01:50;;;;;;;3.83;2.00;;;;;;;;;;5047294;28;20485;-68
2021/05/29 10:04:37;;;;;;;4.65;2.20;;;;;;;;;;5054436;28;20016;-71
2021/05/29 10:07:02;;;;;;;;;;;;;;;;;;5051430;28;20060;-69
2021/05/29 10:09:28;;;;;;;2.75;1.92;;;;;;;;;;5047942;28;20362;-70
2021/05/29 10:11:53;;;;;;;3.13;1.90;;;;;;;;;;5038448;28;20028;-73
2021/05/29 10:14:22;;;;;;;2.80;2.45;;;;;;;;;;5042837;28;20060;-72
2021/05/29 10:16:48;;;;;;;3.78;2.13;;;;;;;;;;5054296;28;20025;-70
2021/05/29 10:19:13;;;;;;;5.18;2.53;;;;;;;;;;5047294;28;20016;-74
2021/05/29 10:21:39;;;;;;;3.47;1.85;;;;;;;;;;5050282;28;20437;-72
2021/05/29 10:24:05;;;;;;;3.05;2.03;;;;;;;;;;5042283;28;20049;-74
2021/05/29 10:26:33;;;;;;;2.78;2.10;;;;;;;;;;5048942;28;20021;-72
2021/05/29 10:29:01;;;;;;;5.78;2.50;;;;;;;;;;5048989;28;20028;-71
2021/05/29 10:31:36;;;;;;;3.92;2.17;;;;;;;;;;5040361;28;20156;-72
2021/05/29 10:34:01;;;;;;;4.10;2.33;;;;;;;;;;5038024;28;20018;-70
2021/05/29 10:36:39;;;;;;;2.75;2.17;;;;;;;;;;5049160;28;20013;-70
2021/05/29 10:39:08;;;;;;;3.25;2.45;;;;;;;;;;5080678;28;20528;-70
2021/05/29 10:41:49;;;;;;;4.35;2.08;;;;;;;;;;5046449;28;20040;-70
2021/05/29 10:44:28;;;;;;;3.80;2.15;;;;;;;;;;5047607;28;20615;-70
2021/05/29 10:47:02;;;;;;;2.63;1.80;;;;;;;;;;5050877;28;20035;-70
2021/05/29 10:49:46;;;;;;;3.75;1.90;;;;;;;;;;5042488;28;20022;-70
2021/05/29 10:52:35;;;;;;;3.08;1.80;;;;;;;;;;5055934;28;20040;-69
2021/05/29 10:55:09;;;;;;;2.20;1.95;;;;;;;;;;5046061;28;20495;-70
2021/05/29 10:57:50;;;;;;;3.10;2.00;;;;;;;;;;5048053;28;20075;-69
2021/05/29 11:00:34;;;;;;;2.58;1.80;;;;;;;;;;5052121;28;20040;-70
2021/05/29 11:03:22;;;;;;;3.05;2.00;;;;;;;;;;5052362;28;20039;-69
2021/05/29 11:05:52;;;;;;;4.10;1.75;;;;;;;;;;5047497;28;20071;-69
2021/05/29 11:08:36;;;;;;;2.28;1.95;;;;;;;;;;5046505;28;20042;-69
2021/05/29 11:11:23;;;;;;;2.53;1.90;;;;;;;;;;5050428;28;20017;-69
2021/05/29 11:14:04;;;;;;;3.35;1.90;;;;;;;;;;5045725;28;20017;-71
2021/05/29 11:16:48;;;;;;;3.25;1.60;;;;;;;;;;5033960;28;20037;-71
2021/05/29 11:19:18;;;;;;;2.70;1.73;;;;;;;;;;5045215;28;20040;-70
2021/05/29 11:22:03;;;;;;;2.72;1.33;;;;;;;;;;5051770;28;20020;-72
2021/05/29 11:24:29;;;;;;;2.37;1.40;;;;;;;;;;5034058;28;20021;-67
2021/05/29 11:26:54;;;;;;;1.58;1.40;;;;;;;;;;5034039;28;20025;-72
2021/05/29 11:29:20;;;;;;;1.92;1.30;;;;;;;;;;5064341;28;20442;-72
2021/05/29 11:31:46;;;;;;;1.67;1.25;;;;;;;;;;5041591;28;20037;-73
2021/05/29 11:34:12;;;;;;;3.63;1.60;;;;;;;;;;5051014;28;20043;-69
2021/05/29 11:36:41;;;;;;;3.97;1.60;;;;;;;;;;5045069;28;20104;-69
2021/05/29 11:39:19;;;;;;;2.35;1.50;;;;;;;;;;5042660;28;20067;-70
2021/05/29 11:41:44;;;;;;;1.58;1.40;;;;;;;;;;5040638;28;20393;-68
2021/05/29 11:44:20;;;;;;;2.90;1.63;;;;;;;;;;5039935;28;20032;-70
2021/05/29 11:46:45;;;;;;;;;;;;;;;;;;5036575;28;20036;-71
2021/05/29 11:49:13;;;;;;;2.77;1.50;;;;;;;;;;5043695;28;19935;-69
2021/05/29 11:51:42;;;;;;;1.90;1.27;;;;;;;;;;5044360;28;20026;-69
2021/05/29 11:54:11;;;;;;;4.78;1.35;;;;;;;;;;5049573;28;20071;-68
2021/05/29 11:56:38;;;;;;;3.17;1.60;;;;;;;;;;5055093;28;20013;-67
2021/05/29 11:59:06;;;;;;;2.53;1.38;;;;;;;;;;5052867;28;20100;-67
2021/05/29 12:01:35;;;;;;;2.38;1.30;;;;;;;;;;5048413;28;20009;-70
2021/05/29 12:04:03;;;;;;;3.28;1.40;;;;;;;;;;5043918;28;20020;-73
2021/05/29 12:06:33;;;;;;;2.03;1.45;;;;;;;;;;5037973;28;20104;-71
2021/05/29 12:09:01;;;;;;;1.90;1.10;;;;;;;;;;5035535;28;20052;-67
2021/05/29 12:11:33;;;;;;;2.17;1.38;;;;;;;;;;5035962;28;20044;-68
2021/05/29 12:14:03;;;;;;;3.42;1.52;;;;;;;;;;5038873;28;20052;-69
2021/05/29 12:16:31;;;;;;;3.08;1.25;;;;;;;;;;5051039;28;20040;-68
2021/05/29 12:18:57;;;;;;;2.83;1.50;;;;;;;;;;5044353;28;20469;-68
2021/05/29 12:21:22;;;;;;;6.55;1.60;;;;;;;;;;5049729;28;20032;-69
2021/05/29 12:23:54;;;;;;;5.03;2.00;;;;;;;;;;5044330;28;20040;-69
2021/05/29 12:26:22;;;;;;;2.45;1.38;;;;;;;;;;5051388;28;20044;-69
2021/05/29 12:28:48;;;;;;;2.90;1.60;;;;;;;;;;5045324;28;20040;-69
2021/05/29 12:31:13;;;;;;;1.92;1.38;;;;;;;;;;5059077;28;20013;-69
2021/05/29 12:33:39;;;;;;;2.70;1.33;;;;;;;;;;5044370;28;20021;-70
2021/05/29 12:36:05;;;;;;;1.92;1.40;;;;;;;;;;5045853;28;20591;-69
2021/05/29 12:38:30;;;;;;;2.63;1.60;;;;;;;;;;5048534;28;20013;-69
2021/05/29 12:40:58;;;;;;;3.20;1.50;;;;;;;;;;5048659;28;20024;-69
2021/05/29 12:43:26;;;;;;;2.63;1.45;;;;;;;;;;5047426;28;20083;-69
2021/05/29 12:45:53;;;;;;;1.70;1.23;;;;;;;;;;5061930;28;20097;-69
2021/05/29 12:48:21;;;;;;;2.75;1.80;;;;;;;;;;5040561;28;20053;-69
2021/05/29 12:51:00;;;;;;;3.72;1.55;;;;;;;;;;5052728;28;20018;-69
2021/05/29 12:53:27;;;;;;;2.80;1.40;;;;;;;;;;5039108;28;20013;-70
2021/05/29 12:56:08;;;;;;;3.22;1.45;;;;;;;;;;5038499;28;20017;-70
2021/05/29 12:58:33;;;;;;;2.47;1.40;;;;;;;;;;5037754;28;20013;-70
2021/05/29 13:09:22;;;;;;;2.05;1.50;;;;;;;;;;5043563;28;20115;-70
2021/05/29 13:11:50;;;;;;;5.03;1.50;;;;;;;;;;5048458;28;20029;-71
2021/05/29 13:14:17;;;;;;;3.25;1.60;;;;;;;;;;5041036;28;20018;-70
2021/05/29 13:17:03;;;;;;;2.85;1.50;;;;;;;;;;5036687;28;20018;-70
2021/05/29 13:19:30;;;;;;;12.30;1.90;;;;;;;;;;5043415;28;20025;-70
2021/05/29 13:21:55;;;;;;;3.80;1.70;;;;;;;;;;5056426;28;20013;-70
2021/05/29 13:24:39;;;;;;;3.47;1.80;;;;;;;;;;5055630;28;20070;-69
2021/05/29 13:27:09;;;;;;;3.20;1.48;;;;;;;;;;5056358;28;20028;-70
2021/05/29 13:29:37;;;;;;;2.65;1.70;;;;;;;;;;5055139;28;20104;-70
2021/05/29 13:32:02;;;;;;;3.05;2.10;;;;;;;;;;5056158;28;20044;-70
2021/05/29 13:34:28;;;;;;;4.13;1.90;;;;;;;;;;5054884;28;20434;-70
2021/05/29 13:36:53;;;;;;;4.93;2.20;;;;;;;;;;5054962;28;20071;-71
2021/05/29 13:39:18;;;;;;;3.90;1.80;;;;;;;;;;5054480;28;20460;-66
2021/05/29 13:41:44;;;;;;;4.37;2.53;;;;;;;;;;5054962;28;20271;-68
2021/05/29 13:44:09;;;;;;;3.73;2.10;;;;;;;;;;5055854;28;20264;-67
2021/05/29 13:46:34;;;;;;;2.80;1.85;;;;;;;;;;5054577;28;20115;-67
2021/05/29 13:49:00;;;;;;;2.85;1.90;;;;;;;;;;5055986;28;20544;-67
2021/05/29 13:51:27;;;;;;;2.93;1.90;;;;;;;;;;5055847;28;20354;-66
2021/05/29 13:53:54;;;;;;;2.60;2.03;;;;;;;;;;5054762;28;20516;-69
2021/05/29 13:56:20;;;;;;;2.95;1.90;;;;;;;;;;5055763;28;20457;-66
2021/05/29 13:58:48;;;;;;;6.27;2.00;;;;;;;;;;5055851;28;20021;-67
2021/05/29 14:01:14;;;;;;;4.60;1.90;;;;;;;;;;5055314;28;20029;-66
2021/05/29 14:03:40;;;;;;;2.55;1.90;;;;;;;;;;5055297;28;20032;-65
2021/05/29 14:06:05;;;;;;;3.20;2.10;;;;;;;;;;5056614;28;20404;-78
2021/05/29 14:08:30;;;;;;;3.87;1.87;;;;;;;;;;5055128;28;20544;-77
2021/05/29 14:10:55;;;;;;;3.03;1.90;;;;;;;;;;5048318;28;20040;-79
2021/05/29 14:13:20;;;;;;;3.07;1.67;;;;;;;;;;5054881;28;20045;-78
2021/05/29 14:15:46;;;;;;;3.57;2.33;;;;;;;;;;5051004;28;20096;-66
2021/05/29 14:18:13;;;;;;;2.57;1.60;;;;;;;;;;5056193;28;20047;-74
2021/05/29 14:20:41;;;;;;;6.60;1.73;;;;;;;;;;5055492;28;20502;-73
2021/05/29 14:23:06;;;;;;;4.35;1.90;;;;;;;;;;5053212;28;20013;-70
2021/05/29 14:25:31;;;;;;;3.03;1.87;;;;;;;;;;5053004;28;20031;-76
2021/05/29 14:27:56;;;;;;;3.47;2.27;;;;;;;;;;5052176;28;20021;-67
2021/05/29 14:30:22;;;;;;;5.50;2.30;;;;;;;;;;5053423;28;20025;-71
2021/05/29 14:32:47;;;;;;;4.72;2.15;;;;;;;;;;5051863;28;20024;-72
2021/05/29 14:35:15;;;;;;;4.10;2.20;;;;;;;;;;5051864;28;20155;-70
2021/05/29 14:37:40;;;;;;;2.83;1.77;;;;;;;;;;5042799;28;20032;-77
2021/05/29 14:40:05;;;;;;;4.38;2.17;;;;;;;;;;5034814;28;20080;-74
2021/05/29 14:42:33;;;;;;;2.85;1.67;;;;;;;;;;5034760;28;20032;-77
2021/05/29 14:44:58;;;;;;;2.90;1.70;;;;;;;;;;5036350;28;20335;-77
2021/05/29 14:47:23;;;;;;;3.53;2.23;;;;;;;;;;5053865;28;20086;-74
2021/05/29 14:49:49;;;;;;;2.70;1.93;;;;;;;;;;5053518;28;20453;-73
2021/05/29 14:52:14;;;;;;;6.10;2.10;;;;;;;;;;5053052;28;20536;-70
2021/05/29 14:54:39;;;;;;;5.07;1.90;;;;;;;;;;5053723;28;20406;-72
2021/05/29 14:57:04;;;;;;;3.60;2.10;;;;;;;;;;5055311;28;20016;-73
2021/05/29 14:59:30;;;;;;;4.50;2.30;;;;;;;;;;5041953;28;20102;-74
2021/05/29 15:02:01;;;;;;;4.90;2.27;;;;;;;;;;5043308;28;20028;-76